createdAt,value
2023-03-07T00:01:08.614Z,9.74
2023-03-07T00:04:11.388Z,9.75
2023-03-07T00:07:15.221Z,9.74
2023-03-07T00:10:18.481Z,9.73
2023-03-07T00:13:21.052Z,9.75
2023-03-07T00:16:26.358Z,9.74
2023-03-07T00:19:28.876Z,9.75
2023-03-07T00:22:31.392Z,9.75
2023-03-07T00:25:34.160Z,9.73
2023-03-07T00:28:36.578Z,9.73
2023-03-07T00:31:40.446Z,9.75
2023-03-07T00:34:42.992Z,9.75
2023-03-07T00:37:45.646Z,9.74
2023-03-07T00:40:48.522Z,9.74
2023-03-07T00:43:51.477Z,9.74
2023-03-07T00:46:55.352Z,9.74
2023-03-07T00:49:57.956Z,9.73
2023-03-07T00:53:00.677Z,9.74
2023-03-07T00:56:05.593Z,9.75
2023-03-07T00:59:08.453Z,9.74
2023-03-07T01:02:12.328Z,9.73
2023-03-07T01:05:14.860Z,9.74
2023-03-07T01:08:20.511Z,9.73
2023-03-07T01:11:23.250Z,9.74
2023-03-07T01:14:25.653Z,9.73
2023-03-07T01:17:29.427Z,9.73
2023-03-07T01:20:34.267Z,9.73
2023-03-07T01:23:36.817Z,9.74
2023-03-07T01:26:40.574Z,9.73
2023-03-07T01:29:42.907Z,9.73
2023-03-07T01:32:48.870Z,9.73
2023-03-07T01:35:51.541Z,9.72
2023-03-07T01:38:55.975Z,9.73
2023-03-07T01:41:58.475Z,9.71
2023-03-07T01:45:06.097Z,9.73
2023-03-07T01:48:10.038Z,9.73
2023-03-07T01:51:12.519Z,9.73
2023-03-07T01:54:19.163Z,9.71
2023-03-07T01:57:24.291Z,9.71
2023-03-07T02:00:29.811Z,9.70
2023-03-07T02:03:37.684Z,9.70
2023-03-07T02:06:41.732Z,9.71
2023-03-07T02:09:45.878Z,9.70
2023-03-07T02:12:49.256Z,9.69
2023-03-07T02:15:52.670Z,9.71
2023-03-07T02:18:56.788Z,9.70
2023-03-07T02:22:09.885Z,9.71
2023-03-07T02:25:19.494Z,9.71
2023-03-07T02:28:23.932Z,9.69
2023-03-07T02:31:27.091Z,9.70
2023-03-07T02:34:31.691Z,9.70
2023-03-07T02:37:38.124Z,9.70
2023-03-07T02:40:40.880Z,9.69
2023-03-07T02:43:44.641Z,9.70
2023-03-07T02:46:46.998Z,9.67
2023-03-07T02:49:50.878Z,9.69
2023-03-07T02:52:53.969Z,9.69
2023-03-07T02:55:58.318Z,9.68
2023-03-07T02:59:02.316Z,9.68
2023-03-07T03:02:05.158Z,9.68
2023-03-07T03:05:08.494Z,9.68
2023-03-07T03:08:12.642Z,9.68
2023-03-07T03:11:15.075Z,9.67
2023-03-07T03:14:18.974Z,9.67
2023-03-07T03:17:21.480Z,9.66
2023-03-07T03:20:25.420Z,9.66
2023-03-07T03:23:29.480Z,9.65
2023-03-07T03:26:31.995Z,9.66
2023-03-07T03:29:36.147Z,9.66
2023-03-07T03:32:39.536Z,9.66
2023-03-07T03:35:43.591Z,9.67
2023-03-07T03:38:46.261Z,9.66
2023-03-07T03:41:48.942Z,9.66
2023-03-07T03:44:52.964Z,9.67
2023-03-07T03:47:55.410Z,9.66
2023-03-07T03:51:02.426Z,9.65
2023-03-07T03:54:05.068Z,9.67
2023-03-07T03:57:07.912Z,9.67
2023-03-07T04:00:14.905Z,9.67
2023-03-07T04:03:17.535Z,9.66
2023-03-07T04:06:22.084Z,9.65
2023-03-07T04:09:24.576Z,9.66
2023-03-07T04:12:27.624Z,9.66
2023-03-07T04:15:31.788Z,9.66
2023-03-07T04:18:35.682Z,9.65
2023-03-07T04:21:38.141Z,9.65
2023-03-07T04:24:40.628Z,9.65
2023-03-07T04:27:43.194Z,9.67
2023-03-07T04:30:47.086Z,9.65
2023-03-07T04:33:50.643Z,9.65
2023-03-07T04:36:53.103Z,9.65
2023-03-07T04:39:55.956Z,9.65
2023-03-07T04:42:58.876Z,9.66
2023-03-07T04:46:03.196Z,9.66
2023-03-07T04:49:05.992Z,9.67
2023-03-07T04:52:08.626Z,9.65
2023-03-07T04:55:11.595Z,9.66
2023-03-07T04:58:15.081Z,9.66
2023-03-07T05:01:19.377Z,9.66
2023-03-07T05:04:22.036Z,9.67
2023-03-07T05:07:25.777Z,9.66
2023-03-07T05:10:28.176Z,9.65
2023-03-07T05:13:30.895Z,9.66
2023-03-07T05:16:35.156Z,9.66
2023-03-07T05:19:37.660Z,9.64
2023-03-07T05:22:40.201Z,9.66
2023-03-07T05:25:43.633Z,9.64
2023-03-07T05:28:47.148Z,9.64
2023-03-07T05:31:51.257Z,9.64
2023-03-07T05:34:54.145Z,9.64
2023-03-07T05:37:56.854Z,9.62
2023-03-07T05:40:59.368Z,9.62
2023-03-07T05:44:01.963Z,9.63
2023-03-07T05:47:05.978Z,9.62
2023-03-07T05:50:10.640Z,9.62
2023-03-07T05:53:13.092Z,9.62
2023-03-07T05:56:15.833Z,9.61
2023-03-07T05:59:18.429Z,9.61
2023-03-07T06:02:22.324Z,9.61
2023-03-07T06:05:25.575Z,9.60
2023-03-07T06:08:28.317Z,9.61
2023-03-07T06:11:30.806Z,9.59
2023-03-07T06:14:33.912Z,9.60
2023-03-07T06:17:40.540Z,9.61
2023-03-07T06:20:43.294Z,9.60
2023-03-07T06:23:46.141Z,9.65
2023-03-07T06:26:48.543Z,9.65
2023-03-07T06:29:51.288Z,9.62
2023-03-07T06:32:55.451Z,9.61
2023-03-07T06:35:58.426Z,9.61
2023-03-07T06:39:01.455Z,9.62
2023-03-07T06:42:04.117Z,9.60
2023-03-07T06:45:07.861Z,9.62
2023-03-07T06:48:11.724Z,9.60
2023-03-07T06:51:14.400Z,9.59
2023-03-07T06:54:17.342Z,9.60
2023-03-07T06:57:19.955Z,9.61
2023-03-07T07:00:24.085Z,9.60
2023-03-07T07:03:28.160Z,9.59
2023-03-07T07:06:31.077Z,9.60
2023-03-07T07:09:34.245Z,9.61
2023-03-07T07:12:40.441Z,9.60
2023-03-07T07:16:03.143Z,9.60
2023-03-07T07:23:49.216Z,9.61
2023-03-07T07:27:39.157Z,9.62
2023-03-07T07:30:41.818Z,9.60
2023-03-07T07:33:46.332Z,9.60
2023-03-07T07:36:50.351Z,9.61
2023-03-07T07:39:53.170Z,9.59
2023-03-07T07:42:55.720Z,9.59
2023-03-07T07:45:58.250Z,9.60
2023-03-07T07:49:00.799Z,9.61
2023-03-07T07:52:05.003Z,9.60
2023-03-07T07:55:08.045Z,9.58
2023-03-07T07:58:10.784Z,9.59
2023-03-07T08:01:15.123Z,9.59
2023-03-07T08:04:17.705Z,9.58
2023-03-07T08:07:23.317Z,9.58
2023-03-07T08:10:25.962Z,9.57
2023-03-07T08:13:28.494Z,9.57
2023-03-07T08:16:31.115Z,9.59
2023-03-07T08:19:33.785Z,9.59
2023-03-07T08:22:38.292Z,9.60
2023-03-07T08:25:40.968Z,9.59
2023-03-07T08:28:45.900Z,9.58
2023-03-07T08:31:51.361Z,9.58
2023-03-07T08:34:54.401Z,9.58
2023-03-07T08:38:00.825Z,9.58
2023-03-07T08:41:04.783Z,9.59
2023-03-07T08:44:07.595Z,9.59
2023-03-07T08:47:11.412Z,9.58
2023-03-07T08:50:14.270Z,9.59
2023-03-07T08:53:18.411Z,9.59
2023-03-07T08:56:22.030Z,9.59
2023-03-07T08:59:24.569Z,9.61
2023-03-07T09:02:27.176Z,9.60
2023-03-07T09:05:31.369Z,9.59
2023-03-07T09:08:36.817Z,9.59
2023-03-07T09:11:40.831Z,9.59
2023-03-07T09:14:43.389Z,9.58
2023-03-07T09:17:45.937Z,9.58
2023-03-07T09:20:48.467Z,9.57
2023-03-07T09:23:52.526Z,9.57
2023-03-07T09:26:55.460Z,9.59
2023-03-07T09:43:14.974Z,9.58
2023-03-07T09:46:35.804Z,9.57
2023-03-07T09:49:45.152Z,9.58
2023-03-07T09:52:48.084Z,9.57
2023-03-07T09:55:52.918Z,9.58
2023-03-07T09:59:40.062Z,9.58
2023-03-07T10:02:50.273Z,9.59
2023-03-07T10:05:57.414Z,9.57
2023-03-07T10:09:02.453Z,9.56
2023-03-07T10:12:27.019Z,9.56
2023-03-07T10:15:45.363Z,9.57
2023-03-07T10:19:03.509Z,9.57
2023-03-07T10:22:13.849Z,9.59
2023-03-07T10:25:25.299Z,9.57
2023-03-07T10:28:31.309Z,9.57
2023-03-07T10:31:39.371Z,9.57
2023-03-07T10:34:42.359Z,9.58
2023-03-07T10:37:51.608Z,9.58
2023-03-07T10:40:57.959Z,9.58
2023-03-07T10:44:00.742Z,9.57
2023-03-07T10:47:05.183Z,9.58
2023-03-07T10:50:25.807Z,9.59
2023-03-07T10:53:33.256Z,9.58
2023-03-07T10:56:35.729Z,9.58
2023-03-07T10:59:39.968Z,9.58
2023-03-07T11:02:48.772Z,9.58
2023-03-07T11:05:51.873Z,9.57
2023-03-07T11:08:56.191Z,9.58
2023-03-07T11:12:01.025Z,9.58
2023-03-07T11:15:12.527Z,9.58
2023-03-07T11:18:30.252Z,9.58
2023-03-07T11:21:34.724Z,9.58
2023-03-07T11:24:39.283Z,9.58
2023-03-07T11:27:49.377Z,9.57
2023-03-07T11:30:53.144Z,9.56
2023-03-07T11:34:06.591Z,9.57
2023-03-07T11:37:23.743Z,9.56
2023-03-07T11:40:29.578Z,9.58
2023-03-07T11:43:45.221Z,9.57
2023-03-07T11:47:11.148Z,9.57
2023-03-07T11:50:23.708Z,9.56
2023-03-07T11:53:35.768Z,9.57
2023-03-07T11:56:45.485Z,9.57
2023-03-07T12:00:04.636Z,9.56
2023-03-07T12:03:41.965Z,9.56
2023-03-07T12:06:53.854Z,9.57
2023-03-07T12:10:03.871Z,9.56
2023-03-07T12:13:12.442Z,9.55
2023-03-07T12:16:27.056Z,9.56
2023-03-07T12:19:51.528Z,9.57
2023-03-07T12:23:05.997Z,9.57
2023-03-07T12:26:16.911Z,9.59
2023-03-07T12:29:27.263Z,9.58
2023-03-07T12:32:32.916Z,9.59
2023-03-07T12:35:44.588Z,9.58
2023-03-07T12:38:52.686Z,9.59
2023-03-07T12:42:02.858Z,9.57
2023-03-07T12:45:11.786Z,9.58
2023-03-07T12:48:23.118Z,9.57
2023-03-07T12:51:28.684Z,9.58
2023-03-07T12:54:38.040Z,9.57
2023-03-07T12:57:44.101Z,9.56
2023-03-07T13:00:50.390Z,9.56
2023-03-07T13:03:58.035Z,9.57
2023-03-07T13:07:08.915Z,9.56
2023-03-07T13:10:19.633Z,9.58
2023-03-07T13:13:51.492Z,9.57
2023-03-07T13:16:54.781Z,9.57
2023-03-07T13:19:58.397Z,9.56
2023-03-07T13:23:11.986Z,9.58
2023-03-07T13:26:25.078Z,9.57
2023-03-07T13:30:12.230Z,9.57
2023-03-07T13:33:27.591Z,9.57
2023-03-07T13:36:35.828Z,9.57
2023-03-07T13:39:39.653Z,9.58
2023-03-07T13:42:47.853Z,9.56
2023-03-07T13:45:53.169Z,9.54
2023-03-07T13:49:01.823Z,9.57
2023-03-07T13:52:22.932Z,9.56
2023-03-07T13:55:31.426Z,9.56
2023-03-07T13:58:39.493Z,9.56
2023-03-07T14:01:46.697Z,9.56
2023-03-07T14:04:54.371Z,9.55
2023-03-07T14:07:59.012Z,9.55
2023-03-07T14:11:02.048Z,9.56
2023-03-07T14:14:28.820Z,9.55
2023-03-07T14:17:53.566Z,9.55
2023-03-07T14:21:02.124Z,9.55
2023-03-07T14:24:40.562Z,9.56
2023-03-07T14:27:52.776Z,9.57
2023-03-07T14:30:59.129Z,9.54
2023-03-07T14:34:03.867Z,9.57
2023-03-07T14:37:08.564Z,9.57
2023-03-07T14:40:31.624Z,9.57
2023-03-07T14:43:46.179Z,9.58
2023-03-07T14:47:02.345Z,9.57
2023-03-07T14:50:13.722Z,9.58
2023-03-07T14:53:21.574Z,9.58
2023-03-07T14:56:27.606Z,9.57
2023-03-07T14:59:30.315Z,9.57
2023-03-07T15:02:34.686Z,9.58
2023-03-07T15:05:38.709Z,9.59
2023-03-07T15:08:41.345Z,9.58
2023-03-07T15:11:49.684Z,9.58
2023-03-07T15:14:55.434Z,9.58
2023-03-07T15:18:03.952Z,9.59
2023-03-07T15:21:08.822Z,9.60
2023-03-07T15:24:18.233Z,9.60
2023-03-07T15:27:26.384Z,9.59
2023-03-07T15:30:32.113Z,9.58
2023-03-07T15:33:36.694Z,9.60
2023-03-07T15:36:39.553Z,9.59
2023-03-07T15:39:42.164Z,9.59
2023-03-07T15:42:55.656Z,9.60
2023-03-07T15:46:04.332Z,9.60
2023-03-07T15:49:18.184Z,9.61
2023-03-07T15:52:31.227Z,9.61
2023-03-07T15:55:34.435Z,9.60
2023-03-07T15:58:38.316Z,9.61
2023-03-07T16:01:41.325Z,9.60
2023-03-07T16:04:45.309Z,9.62
2023-03-07T16:07:49.242Z,9.62
2023-03-07T16:10:57.189Z,9.62
2023-03-07T16:14:00.305Z,9.63
2023-03-07T16:17:06.069Z,9.62
2023-03-07T16:20:16.269Z,9.62
2023-03-07T16:23:18.962Z,9.62
2023-03-07T16:26:24.258Z,9.63
2023-03-07T16:29:27.418Z,9.63
2023-03-07T16:32:29.959Z,9.62
2023-03-07T16:35:33.998Z,9.63
2023-03-07T16:38:36.563Z,9.64
2023-03-07T16:41:40.125Z,9.65
2023-03-07T16:44:42.595Z,9.66
2023-03-07T16:47:45.539Z,9.63
2023-03-07T16:50:50.016Z,9.64
2023-03-07T16:53:52.892Z,9.65
2023-03-07T16:56:58.484Z,9.64
2023-03-07T17:00:01.331Z,9.63
2023-03-07T17:03:04.548Z,9.64
2023-03-07T17:06:15.376Z,9.64
2023-03-07T17:09:17.957Z,9.65
2023-03-07T17:12:25.610Z,9.65
2023-03-07T17:15:31.353Z,9.66
2023-03-07T17:18:34.031Z,9.66
2023-03-07T17:21:37.951Z,9.66
2023-03-07T17:24:40.587Z,9.65
2023-03-07T17:27:47.642Z,9.65
2023-03-07T17:30:50.335Z,9.65
2023-03-07T17:33:52.958Z,9.66
2023-03-07T17:36:57.618Z,9.65
2023-03-07T17:40:00.591Z,9.66
2023-03-07T17:43:04.366Z,9.65
2023-03-07T17:46:09.992Z,9.65
2023-03-07T17:49:12.564Z,9.65
2023-03-07T17:52:16.380Z,9.66
2023-03-07T17:55:20.148Z,9.65
2023-03-07T17:58:22.514Z,9.63
2023-03-07T18:01:25.164Z,9.64
2023-03-07T18:04:30.527Z,9.63
2023-03-07T18:07:34.608Z,9.64
2023-03-07T18:10:37.272Z,9.64
2023-03-07T18:13:42.227Z,9.62
2023-03-07T18:16:44.869Z,9.64
2023-03-07T18:19:47.547Z,9.64
2023-03-07T18:22:51.516Z,9.63
2023-03-07T18:25:59.159Z,9.63
2023-03-07T18:29:02.171Z,9.63
2023-03-07T18:32:05.038Z,9.64
2023-03-07T18:35:10.122Z,9.64
2023-03-07T18:38:13.936Z,9.65
2023-03-07T18:41:18.695Z,9.65
2023-03-07T18:44:21.387Z,9.65
2023-03-07T18:47:24.059Z,9.63
2023-03-07T18:50:26.757Z,9.64
2023-03-07T18:53:31.202Z,9.64
2023-03-07T18:56:33.766Z,9.65
2023-03-07T18:59:36.395Z,9.65
2023-03-07T19:02:40.476Z,9.65
2023-03-07T19:05:43.705Z,9.65
2023-03-07T19:08:49.302Z,9.66
2023-03-07T19:11:52.270Z,9.66
2023-03-07T19:14:54.802Z,9.65
2023-03-07T19:17:57.483Z,9.65
2023-03-07T19:21:00.200Z,9.65
2023-03-07T19:24:06.037Z,9.66
2023-03-07T19:27:09.858Z,9.67
2023-03-07T19:30:15.217Z,9.66
2023-03-07T19:33:17.644Z,9.65
2023-03-07T19:36:22.947Z,9.64
2023-03-07T19:39:27.028Z,9.65
2023-03-07T19:42:29.945Z,9.65
2023-03-07T19:45:32.443Z,9.64
2023-03-07T19:48:35.095Z,9.65
2023-03-07T19:51:37.616Z,9.65
2023-03-07T19:54:41.676Z,9.66
2023-03-07T19:57:46.768Z,9.65
2023-03-07T20:00:49.550Z,9.65
2023-03-07T20:03:52.681Z,9.65
2023-03-07T20:06:55.235Z,9.65
2023-03-07T20:09:59.428Z,9.66
2023-03-07T20:13:01.920Z,9.66
2023-03-07T20:16:04.949Z,9.65
2023-03-07T20:19:09.635Z,9.64
2023-03-07T20:22:12.503Z,9.66
2023-03-07T20:25:16.688Z,9.66
2023-03-07T20:28:19.263Z,9.67
2023-03-07T20:31:22.687Z,9.66
2023-03-07T20:34:25.538Z,9.66
2023-03-07T20:37:28.346Z,9.67
2023-03-07T20:40:32.738Z,9.67
2023-03-07T20:43:35.706Z,9.67
2023-03-07T20:46:41.929Z,9.68
2023-03-07T20:49:44.538Z,9.67
2023-03-07T20:52:47.184Z,9.67
2023-03-07T20:55:51.331Z,9.66
2023-03-07T20:58:54.445Z,9.66
2023-03-07T21:01:56.975Z,9.66
2023-03-07T21:04:59.520Z,9.67
2023-03-07T21:08:02.350Z,9.67
2023-03-07T21:11:08.401Z,9.66
2023-03-07T21:14:10.840Z,9.67
2023-03-07T21:17:14.668Z,9.67
2023-03-07T21:20:17.909Z,9.67
2023-03-07T21:23:20.448Z,9.66
2023-03-07T21:26:26.478Z,9.67
2023-03-07T21:29:28.960Z,9.67
2023-03-07T21:32:31.435Z,9.67
2023-03-07T21:35:37.869Z,9.66
2023-03-07T21:38:41.605Z,9.68
2023-03-07T21:41:45.395Z,9.66
2023-03-07T21:44:47.833Z,9.66
2023-03-07T21:47:53.296Z,9.67
2023-03-07T21:50:55.859Z,9.68
2023-03-07T21:53:58.430Z,9.68
2023-03-07T21:57:05.066Z,9.67
2023-03-07T22:00:10.054Z,9.69
2023-03-07T22:03:12.539Z,9.69
2023-03-07T22:06:16.670Z,9.67
2023-03-07T22:09:21.003Z,9.68
2023-03-07T22:12:25.027Z,9.69
2023-03-07T22:15:27.803Z,9.68
2023-03-07T22:18:31.569Z,9.68
2023-03-07T22:21:34.045Z,9.67
2023-03-07T22:24:39.783Z,9.68
2023-03-07T22:27:45.323Z,9.67
2023-03-07T22:30:49.246Z,9.67
2023-03-07T22:33:53.202Z,9.68
2023-03-07T22:36:57.364Z,9.67
2023-03-07T22:40:00.171Z,9.68
2023-03-07T22:43:04.188Z,9.68
2023-03-07T22:46:07.648Z,9.68
2023-03-07T22:49:11.232Z,9.69
2023-03-07T22:52:14.142Z,9.68
2023-03-07T22:55:17.974Z,9.68
2023-03-07T22:58:22.030Z,9.69
2023-03-07T23:01:28.379Z,9.69
2023-03-07T23:04:31.279Z,9.70
2023-03-07T23:07:34.131Z,9.69
2023-03-07T23:10:36.703Z,9.70
2023-03-07T23:13:40.750Z,9.69
2023-03-07T23:16:45.155Z,9.69
2023-03-07T23:19:47.726Z,9.69
2023-03-07T23:22:50.218Z,9.69
2023-03-07T23:25:52.892Z,9.69
2023-03-07T23:28:59.059Z,9.68
2023-03-07T23:32:03.681Z,9.69
2023-03-07T23:35:07.593Z,9.69
2023-03-07T23:38:12.995Z,9.70
2023-03-07T23:41:15.786Z,9.70
2023-03-07T23:44:19.684Z,9.69
2023-03-07T23:47:22.179Z,9.69
2023-03-07T23:50:25.011Z,9.69
2023-03-07T23:53:27.478Z,9.68
2023-03-07T23:56:29.991Z,9.69
2023-03-07T23:59:33.880Z,9.69
